sensor_id;sensor_type;location;lat;lon;timestamp;P1;durP1;ratioP1;P2;durP2;ratioP2
62707;SDS011;48769;51.624;5.886;2022-12-01T00:02:19;96.75;;;39.05;;
62707;SDS011;48769;51.624;5.886;2022-12-01T00:04:46;100.63;;;38.00;;
62707;SDS011;48769;51.624;5.886;2022-12-01T00:07:12;105.78;;;41.15;;
62707;SDS011;48769;51.624;5.886;2022-12-01T00:09:37;103.22;;;38.83;;
62707;SDS011;48769;51.624;5.886;2022-12-01T00:12:21;92.43;;;37.25;;
62707;SDS011;48769;51.624;5.886;2022-12-01T00:14:46;93.95;;;40.55;;
62707;SDS011;48769;51.624;5.886;2022-12-01T00:17:18;95.07;;;37.58;;
62707;SDS011;48769;51.624;5.886;2022-12-01T00:19:44;105.53;;;40.55;;
62707;SDS011;48769;51.624;5.886;2022-12-01T00:22:10;114.53;;;42.63;;
62707;SDS011;48769;51.624;5.886;2022-12-01T00:24:35;107.25;;;42.85;;
62707;SDS011;48769;51.624;5.886;2022-12-01T00:27:00;108.43;;;37.33;;
62707;SDS011;48769;51.624;5.886;2022-12-01T00:29:26;101.50;;;42.08;;
62707;SDS011;48769;51.624;5.886;2022-12-01T00:31:51;105.93;;;41.47;;
62707;SDS011;48769;51.624;5.886;2022-12-01T00:34:20;107.15;;;42.53;;
62707;SDS011;48769;51.624;5.886;2022-12-01T00:36:47;115.20;;;42.70;;
62707;SDS011;48769;51.624;5.886;2022-12-01T00:39:12;116.72;;;40.15;;
62707;SDS011;48769;51.624;5.886;2022-12-01T00:41:38;115.88;;;42.47;;
62707;SDS011;48769;51.624;5.886;2022-12-01T00:44:03;117.05;;;42.83;;
62707;SDS011;48769;51.624;5.886;2022-12-01T00:46:29;104.38;;;43.10;;
62707;SDS011;48769;51.624;5.886;2022-12-01T00:48:54;118.15;;;44.42;;
62707;SDS011;48769;51.624;5.886;2022-12-01T00:51:19;104.70;;;42.38;;
62707;SDS011;48769;51.624;5.886;2022-12-01T00:53:44;108.88;;;41.85;;
62707;SDS011;48769;51.624;5.886;2022-12-01T00:56:11;118.68;;;40.50;;
62707;SDS011;48769;51.624;5.886;2022-12-01T00:58:36;105.18;;;40.75;;
62707;SDS011;48769;51.624;5.886;2022-12-01T01:01:02;106.50;;;43.88;;
62707;SDS011;48769;51.624;5.886;2022-12-01T01:03:31;98.97;;;41.28;;
62707;SDS011;48769;51.624;5.886;2022-12-01T01:06:02;111.70;;;42.40;;
62707;SDS011;48769;51.624;5.886;2022-12-01T01:08:29;111.55;;;43.85;;
62707;SDS011;48769;51.624;5.886;2022-12-01T01:10:55;104.78;;;41.03;;
62707;SDS011;48769;51.624;5.886;2022-12-01T01:13:24;117.55;;;44.58;;
62707;SDS011;48769;51.624;5.886;2022-12-01T01:16:23;108.13;;;41.83;;
62707;SDS011;48769;51.624;5.886;2022-12-01T01:18:42;107.70;;;41.22;;
62707;SDS011;48769;51.624;5.886;2022-12-01T01:21:10;109.68;;;42.63;;
62707;SDS011;48769;51.624;5.886;2022-12-01T01:23:37;114.18;;;43.70;;
62707;SDS011;48769;51.624;5.886;2022-12-01T01:26:24;113.45;;;41.50;;
62707;SDS011;48769;51.624;5.886;2022-12-01T01:28:50;105.47;;;40.40;;
62707;SDS011;48769;51.624;5.886;2022-12-01T01:31:18;106.93;;;43.28;;
62707;SDS011;48769;51.624;5.886;2022-12-01T01:33:44;110.20;;;43.03;;
62707;SDS011;48769;51.624;5.886;2022-12-01T01:36:10;103.20;;;41.42;;
62707;SDS011;48769;51.624;5.886;2022-12-01T01:38:37;104.57;;;42.50;;
62707;SDS011;48769;51.624;5.886;2022-12-01T01:41:03;103.97;;;40.85;;
62707;SDS011;48769;51.624;5.886;2022-12-01T01:43:37;104.25;;;42.40;;
62707;SDS011;48769;51.624;5.886;2022-12-01T01:46:24;122.80;;;43.28;;
62707;SDS011;48769;51.624;5.886;2022-12-01T01:53:58;124.63;;;45.55;;
62707;SDS011;48769;51.624;5.886;2022-12-01T01:56:31;124.10;;;44.45;;
62707;SDS011;48769;51.624;5.886;2022-12-01T01:58:58;135.65;;;49.45;;
62707;SDS011;48769;51.624;5.886;2022-12-01T02:01:24;131.50;;;47.88;;
62707;SDS011;48769;51.624;5.886;2022-12-01T02:03:49;134.63;;;47.95;;
62707;SDS011;48769;51.624;5.886;2022-12-01T02:06:18;142.73;;;47.45;;
62707;SDS011;48769;51.624;5.886;2022-12-01T02:08:43;125.53;;;44.42;;
62707;SDS011;48769;51.624;5.886;2022-12-01T02:13:47;131.00;;;45.80;;
62707;SDS011;48769;51.624;5.886;2022-12-01T02:16:27;130.75;;;43.08;;
62707;SDS011;48769;51.624;5.886;2022-12-01T02:19:34;129.15;;;43.85;;
62707;SDS011;48769;51.624;5.886;2022-12-01T02:22:28;124.47;;;42.20;;
62707;SDS011;48769;51.624;5.886;2022-12-01T02:28:03;125.72;;;44.60;;
62707;SDS011;48769;51.624;5.886;2022-12-01T02:33:26;128.93;;;44.00;;
62707;SDS011;48769;51.624;5.886;2022-12-01T02:38:46;116.45;;;43.00;;
62707;SDS011;48769;51.624;5.886;2022-12-01T02:41:19;119.60;;;44.65;;
62707;SDS011;48769;51.624;5.886;2022-12-01T02:43:52;119.47;;;44.75;;
62707;SDS011;48769;51.624;5.886;2022-12-01T02:48:56;105.60;;;43.22;;
62707;SDS011;48769;51.624;5.886;2022-12-01T02:51:28;110.93;;;41.05;;
62707;SDS011;48769;51.624;5.886;2022-12-01T02:53:59;104.90;;;39.05;;
62707;SDS011;48769;51.624;5.886;2022-12-01T02:56:26;106.28;;;40.70;;
62707;SDS011;48769;51.624;5.886;2022-12-01T02:58:52;98.38;;;38.53;;
62707;SDS011;48769;51.624;5.886;2022-12-01T03:04:07;111.28;;;39.75;;
62707;SDS011;48769;51.624;5.886;2022-12-01T03:11:43;104.45;;;40.53;;
62707;SDS011;48769;51.624;5.886;2022-12-01T03:14:18;108.72;;;39.55;;
62707;SDS011;48769;51.624;5.886;2022-12-01T03:17:06;122.78;;;41.78;;
62707;SDS011;48769;51.624;5.886;2022-12-01T03:19:46;115.45;;;43.58;;
62707;SDS011;48769;51.624;5.886;2022-12-01T03:22:18;112.50;;;41.97;;
62707;SDS011;48769;51.624;5.886;2022-12-01T03:24:48;111.75;;;39.72;;
62707;SDS011;48769;51.624;5.886;2022-12-01T03:27:18;120.88;;;44.85;;
62707;SDS011;48769;51.624;5.886;2022-12-01T03:29:48;118.25;;;41.42;;
62707;SDS011;48769;51.624;5.886;2022-12-01T03:32:19;115.03;;;39.85;;
62707;SDS011;48769;51.624;5.886;2022-12-01T03:34:58;109.80;;;41.72;;
62707;SDS011;48769;51.624;5.886;2022-12-01T03:39:59;115.13;;;42.28;;
62707;SDS011;48769;51.624;5.886;2022-12-01T03:42:28;110.40;;;39.38;;
62707;SDS011;48769;51.624;5.886;2022-12-01T03:44:59;108.65;;;39.10;;
62707;SDS011;48769;51.624;5.886;2022-12-01T03:47:33;109.55;;;38.97;;
62707;SDS011;48769;51.624;5.886;2022-12-01T03:50:01;105.38;;;40.25;;
62707;SDS011;48769;51.624;5.886;2022-12-01T03:52:55;95.65;;;36.75;;
62707;SDS011;48769;51.624;5.886;2022-12-01T03:55:35;98.47;;;37.60;;
62707;SDS011;48769;51.624;5.886;2022-12-01T04:00:34;105.07;;;37.53;;
62707;SDS011;48769;51.624;5.886;2022-12-01T04:03:01;96.70;;;37.75;;
62707;SDS011;48769;51.624;5.886;2022-12-01T04:05:28;97.20;;;38.83;;
62707;SDS011;48769;51.624;5.886;2022-12-01T04:07:55;94.45;;;36.10;;
62707;SDS011;48769;51.624;5.886;2022-12-01T04:10:21;90.35;;;38.55;;
62707;SDS011;48769;51.624;5.886;2022-12-01T04:12:46;89.70;;;36.95;;
62707;SDS011;48769;51.624;5.886;2022-12-01T04:15:12;95.88;;;38.35;;
62707;SDS011;48769;51.624;5.886;2022-12-01T04:17:39;94.47;;;36.72;;
62707;SDS011;48769;51.624;5.886;2022-12-01T04:20:09;89.70;;;35.90;;
62707;SDS011;48769;51.624;5.886;2022-12-01T04:22:36;87.05;;;36.15;;
62707;SDS011;48769;51.624;5.886;2022-12-01T04:25:02;93.22;;;37.15;;
62707;SDS011;48769;51.624;5.886;2022-12-01T04:27:28;93.68;;;38.35;;
62707;SDS011;48769;51.624;5.886;2022-12-01T04:29:54;91.80;;;36.88;;
62707;SDS011;48769;51.624;5.886;2022-12-01T04:32:19;86.45;;;37.50;;
62707;SDS011;48769;51.624;5.886;2022-12-01T04:34:44;86.75;;;36.72;;
62707;SDS011;48769;51.624;5.886;2022-12-01T04:37:09;84.68;;;34.42;;
62707;SDS011;48769;51.624;5.886;2022-12-01T04:39:36;85.30;;;35.80;;
62707;SDS011;48769;51.624;5.886;2022-12-01T04:42:02;85.57;;;37.60;;
62707;SDS011;48769;51.624;5.886;2022-12-01T04:44:27;87.93;;;35.50;;
62707;SDS011;48769;51.624;5.886;2022-12-01T04:46:53;83.90;;;35.08;;
62707;SDS011;48769;51.624;5.886;2022-12-01T04:49:19;86.95;;;33.22;;
62707;SDS011;48769;51.624;5.886;2022-12-01T04:51:45;78.72;;;34.20;;
62707;SDS011;48769;51.624;5.886;2022-12-01T04:54:11;85.75;;;36.63;;
62707;SDS011;48769;51.624;5.886;2022-12-01T04:56:36;79.43;;;35.05;;
62707;SDS011;48769;51.624;5.886;2022-12-01T04:59:02;75.60;;;34.97;;
62707;SDS011;48769;51.624;5.886;2022-12-01T05:01:27;82.00;;;32.63;;
62707;SDS011;48769;51.624;5.886;2022-12-01T05:03:53;79.65;;;34.65;;
62707;SDS011;48769;51.624;5.886;2022-12-01T05:06:20;77.88;;;33.40;;
62707;SDS011;48769;51.624;5.886;2022-12-01T05:08:48;74.75;;;32.47;;
62707;SDS011;48769;51.624;5.886;2022-12-01T05:11:14;85.88;;;34.17;;
62707;SDS011;48769;51.624;5.886;2022-12-01T05:13:41;76.40;;;33.20;;
62707;SDS011;48769;51.624;5.886;2022-12-01T05:18:41;75.20;;;33.95;;
62707;SDS011;48769;51.624;5.886;2022-12-01T05:21:08;74.55;;;33.65;;
62707;SDS011;48769;51.624;5.886;2022-12-01T05:23:35;75.13;;;31.23;;
62707;SDS011;48769;51.624;5.886;2022-12-01T05:26:02;75.53;;;31.70;;
62707;SDS011;48769;51.624;5.886;2022-12-01T05:28:29;77.45;;;32.78;;
62707;SDS011;48769;51.624;5.886;2022-12-01T05:30:54;77.65;;;32.90;;
62707;SDS011;48769;51.624;5.886;2022-12-01T05:33:20;66.50;;;29.55;;
62707;SDS011;48769;51.624;5.886;2022-12-01T05:35:47;67.95;;;28.65;;
62707;SDS011;48769;51.624;5.886;2022-12-01T05:38:13;69.57;;;30.92;;
62707;SDS011;48769;51.624;5.886;2022-12-01T05:40:39;71.50;;;31.42;;
62707;SDS011;48769;51.624;5.886;2022-12-01T05:43:05;79.18;;;32.10;;
62707;SDS011;48769;51.624;5.886;2022-12-01T05:45:31;67.70;;;31.00;;
62707;SDS011;48769;51.624;5.886;2022-12-01T05:47:58;73.25;;;30.33;;
62707;SDS011;48769;51.624;5.886;2022-12-01T05:50:25;70.07;;;30.55;;
62707;SDS011;48769;51.624;5.886;2022-12-01T05:52:52;73.93;;;31.25;;
62707;SDS011;48769;51.624;5.886;2022-12-01T05:55:17;74.50;;;31.38;;
62707;SDS011;48769;51.624;5.886;2022-12-01T05:57:42;75.57;;;32.30;;
62707;SDS011;48769;51.624;5.886;2022-12-01T06:00:08;80.53;;;31.63;;
62707;SDS011;48769;51.624;5.886;2022-12-01T06:02:35;77.97;;;33.33;;
62707;SDS011;48769;51.624;5.886;2022-12-01T06:05:00;88.30;;;37.92;;
62707;SDS011;48769;51.624;5.886;2022-12-01T06:07:25;82.93;;;35.13;;
62707;SDS011;48769;51.624;5.886;2022-12-01T06:09:51;88.38;;;36.38;;
62707;SDS011;48769;51.624;5.886;2022-12-01T06:12:18;86.20;;;36.13;;
62707;SDS011;48769;51.624;5.886;2022-12-01T06:14:44;84.60;;;37.00;;
62707;SDS011;48769;51.624;5.886;2022-12-01T06:17:09;89.70;;;37.30;;
62707;SDS011;48769;51.624;5.886;2022-12-01T06:19:35;89.97;;;37.95;;
62707;SDS011;48769;51.624;5.886;2022-12-01T06:22:01;93.45;;;37.13;;
62707;SDS011;48769;51.624;5.886;2022-12-01T06:24:26;92.57;;;36.85;;
62707;SDS011;48769;51.624;5.886;2022-12-01T06:26:52;99.72;;;38.95;;
62707;SDS011;48769;51.624;5.886;2022-12-01T06:29:17;99.88;;;38.60;;
62707;SDS011;48769;51.624;5.886;2022-12-01T06:31:42;95.03;;;38.33;;
62707;SDS011;48769;51.624;5.886;2022-12-01T06:34:08;92.63;;;36.95;;
62707;SDS011;48769;51.624;5.886;2022-12-01T06:36:34;96.05;;;39.28;;
62707;SDS011;48769;51.624;5.886;2022-12-01T06:38:59;94.50;;;38.25;;
62707;SDS011;48769;51.624;5.886;2022-12-01T06:41:24;98.47;;;38.97;;
62707;SDS011;48769;51.624;5.886;2022-12-01T06:43:50;91.90;;;37.17;;
62707;SDS011;48769;51.624;5.886;2022-12-01T06:46:15;88.85;;;36.35;;
62707;SDS011;48769;51.624;5.886;2022-12-01T06:48:40;96.30;;;37.38;;
62707;SDS011;48769;51.624;5.886;2022-12-01T06:51:06;88.60;;;38.58;;
62707;SDS011;48769;51.624;5.886;2022-12-01T06:53:31;96.53;;;37.08;;
62707;SDS011;48769;51.624;5.886;2022-12-01T06:56:00;85.30;;;35.05;;
62707;SDS011;48769;51.624;5.886;2022-12-01T06:58:28;89.45;;;35.50;;
62707;SDS011;48769;51.624;5.886;2022-12-01T07:00:54;91.38;;;36.70;;
62707;SDS011;48769;51.624;5.886;2022-12-01T07:03:21;88.10;;;37.30;;
62707;SDS011;48769;51.624;5.886;2022-12-01T07:05:58;93.80;;;37.65;;
62707;SDS011;48769;51.624;5.886;2022-12-01T07:08:25;87.55;;;37.97;;
62707;SDS011;48769;51.624;5.886;2022-12-01T07:11:03;83.43;;;37.72;;
62707;SDS011;48769;51.624;5.886;2022-12-01T07:13:31;89.20;;;36.20;;
62707;SDS011;48769;51.624;5.886;2022-12-01T07:15:56;86.47;;;36.90;;
62707;SDS011;48769;51.624;5.886;2022-12-01T07:18:22;85.03;;;35.97;;
62707;SDS011;48769;51.624;5.886;2022-12-01T07:20:47;80.68;;;36.17;;
62707;SDS011;48769;51.624;5.886;2022-12-01T07:23:12;93.35;;;37.38;;
62707;SDS011;48769;51.624;5.886;2022-12-01T07:25:38;84.78;;;37.58;;
62707;SDS011;48769;51.624;5.886;2022-12-01T07:28:03;83.65;;;36.72;;
62707;SDS011;48769;51.624;5.886;2022-12-01T07:30:29;89.50;;;37.42;;
62707;SDS011;48769;51.624;5.886;2022-12-01T07:32:54;84.22;;;37.15;;
62707;SDS011;48769;51.624;5.886;2022-12-01T07:35:20;90.75;;;36.88;;
62707;SDS011;48769;51.624;5.886;2022-12-01T07:37:46;85.68;;;37.72;;
62707;SDS011;48769;51.624;5.886;2022-12-01T07:40:11;87.38;;;35.53;;
62707;SDS011;48769;51.624;5.886;2022-12-01T07:42:40;84.53;;;37.05;;
62707;SDS011;48769;51.624;5.886;2022-12-01T07:45:06;85.75;;;36.65;;
62707;SDS011;48769;51.624;5.886;2022-12-01T07:47:31;86.15;;;36.30;;
62707;SDS011;48769;51.624;5.886;2022-12-01T07:49:57;89.03;;;40.53;;
62707;SDS011;48769;51.624;5.886;2022-12-01T07:52:22;88.25;;;38.53;;
62707;SDS011;48769;51.624;5.886;2022-12-01T07:54:47;94.07;;;40.80;;
62707;SDS011;48769;51.624;5.886;2022-12-01T07:57:13;101.28;;;42.15;;
62707;SDS011;48769;51.624;5.886;2022-12-01T07:59:38;97.68;;;42.45;;
62707;SDS011;48769;51.624;5.886;2022-12-01T08:02:04;93.63;;;39.28;;
62707;SDS011;48769;51.624;5.886;2022-12-01T08:04:30;98.45;;;40.40;;
62707;SDS011;48769;51.624;5.886;2022-12-01T08:06:55;103.18;;;43.70;;
62707;SDS011;48769;51.624;5.886;2022-12-01T08:09:20;95.00;;;42.05;;
62707;SDS011;48769;51.624;5.886;2022-12-01T08:11:46;97.88;;;43.15;;
62707;SDS011;48769;51.624;5.886;2022-12-01T08:14:11;105.60;;;42.42;;
62707;SDS011;48769;51.624;5.886;2022-12-01T08:16:37;86.63;;;39.70;;
62707;SDS011;48769;51.624;5.886;2022-12-01T08:19:02;104.65;;;42.47;;
62707;SDS011;48769;51.624;5.886;2022-12-01T08:21:27;98.40;;;43.17;;
62707;SDS011;48769;51.624;5.886;2022-12-01T08:23:53;100.20;;;43.20;;
62707;SDS011;48769;51.624;5.886;2022-12-01T08:26:20;90.18;;;40.92;;
62707;SDS011;48769;51.624;5.886;2022-12-01T08:28:47;96.97;;;41.80;;
62707;SDS011;48769;51.624;5.886;2022-12-01T08:31:17;92.45;;;42.05;;
62707;SDS011;48769;51.624;5.886;2022-12-01T08:33:45;96.80;;;42.13;;
62707;SDS011;48769;51.624;5.886;2022-12-01T08:36:11;90.30;;;42.05;;
62707;SDS011;48769;51.624;5.886;2022-12-01T08:38:41;94.68;;;44.33;;
62707;SDS011;48769;51.624;5.886;2022-12-01T08:41:07;96.78;;;44.13;;
62707;SDS011;48769;51.624;5.886;2022-12-01T08:43:33;92.07;;;42.92;;
62707;SDS011;48769;51.624;5.886;2022-12-01T08:46:03;99.53;;;44.63;;
62707;SDS011;48769;51.624;5.886;2022-12-01T08:48:29;101.78;;;43.47;;
62707;SDS011;48769;51.624;5.886;2022-12-01T08:51:05;102.38;;;46.53;;
62707;SDS011;48769;51.624;5.886;2022-12-01T08:53:34;100.50;;;47.05;;
62707;SDS011;48769;51.624;5.886;2022-12-01T08:56:08;123.53;;;60.97;;
62707;SDS011;48769;51.624;5.886;2022-12-01T08:58:36;112.50;;;52.60;;
62707;SDS011;48769;51.624;5.886;2022-12-01T09:01:06;101.07;;;48.05;;
62707;SDS011;48769;51.624;5.886;2022-12-01T09:03:33;103.00;;;45.15;;
62707;SDS011;48769;51.624;5.886;2022-12-01T09:06:01;105.55;;;49.15;;
62707;SDS011;48769;51.624;5.886;2022-12-01T09:11:00;96.60;;;43.33;;
62707;SDS011;48769;51.624;5.886;2022-12-01T09:13:31;102.45;;;45.90;;
62707;SDS011;48769;51.624;5.886;2022-12-01T09:16:05;104.15;;;45.28;;
62707;SDS011;48769;51.624;5.886;2022-12-01T09:18:32;104.93;;;43.88;;
62707;SDS011;48769;51.624;5.886;2022-12-01T09:20:58;96.38;;;44.35;;
62707;SDS011;48769;51.624;5.886;2022-12-01T09:23:24;98.57;;;43.22;;
62707;SDS011;48769;51.624;5.886;2022-12-01T09:25:50;106.47;;;46.28;;
62707;SDS011;48769;51.624;5.886;2022-12-01T09:28:17;103.25;;;44.80;;
62707;SDS011;48769;51.624;5.886;2022-12-01T09:30:43;107.60;;;46.78;;
62707;SDS011;48769;51.624;5.886;2022-12-01T09:33:10;105.78;;;47.10;;
62707;SDS011;48769;51.624;5.886;2022-12-01T09:35:36;103.32;;;46.78;;
62707;SDS011;48769;51.624;5.886;2022-12-01T09:38:02;108.43;;;46.50;;
62707;SDS011;48769;51.624;5.886;2022-12-01T09:40:33;107.90;;;47.10;;
62707;SDS011;48769;51.624;5.886;2022-12-01T09:43:01;99.60;;;45.73;;
62707;SDS011;48769;51.624;5.886;2022-12-01T09:45:33;102.03;;;45.30;;
62707;SDS011;48769;51.624;5.886;2022-12-01T09:48:03;94.55;;;44.10;;
62707;SDS011;48769;51.624;5.886;2022-12-01T09:50:31;106.18;;;46.20;;
62707;SDS011;48769;51.624;5.886;2022-12-01T09:53:17;94.35;;;44.83;;
62707;SDS011;48769;51.624;5.886;2022-12-01T09:55:48;97.20;;;43.88;;
62707;SDS011;48769;51.624;5.886;2022-12-01T09:58:16;100.20;;;45.90;;
62707;SDS011;48769;51.624;5.886;2022-12-01T10:00:45;104.55;;;45.97;;
62707;SDS011;48769;51.624;5.886;2022-12-01T10:03:20;98.07;;;45.05;;
62707;SDS011;48769;51.624;5.886;2022-12-01T10:06:02;100.57;;;45.95;;
62707;SDS011;48769;51.624;5.886;2022-12-01T10:08:36;97.80;;;45.40;;
62707;SDS011;48769;51.624;5.886;2022-12-01T10:11:10;107.07;;;46.03;;
62707;SDS011;48769;51.624;5.886;2022-12-01T10:13:42;103.25;;;46.17;;
62707;SDS011;48769;51.624;5.886;2022-12-01T10:16:08;110.47;;;46.40;;
62707;SDS011;48769;51.624;5.886;2022-12-01T10:18:48;98.50;;;43.70;;
62707;SDS011;48769;51.624;5.886;2022-12-01T10:26:44;108.30;;;48.83;;
62707;SDS011;48769;51.624;5.886;2022-12-01T10:29:40;99.10;;;44.17;;
62707;SDS011;48769;51.624;5.886;2022-12-01T10:34:42;107.40;;;46.50;;
62707;SDS011;48769;51.624;5.886;2022-12-01T10:37:44;100.63;;;44.83;;
62707;SDS011;48769;51.624;5.886;2022-12-01T10:40:04;110.25;;;47.92;;
62707;SDS011;48769;51.624;5.886;2022-12-01T10:44:59;100.57;;;46.13;;
62707;SDS011;48769;51.624;5.886;2022-12-01T10:47:26;98.25;;;47.30;;
62707;SDS011;48769;51.624;5.886;2022-12-01T10:49:53;98.28;;;45.30;;
62707;SDS011;48769;51.624;5.886;2022-12-01T10:55:04;104.10;;;46.50;;
62707;SDS011;48769;51.624;5.886;2022-12-01T10:57:48;104.05;;;47.20;;
62707;SDS011;48769;51.624;5.886;2022-12-01T11:00:26;99.25;;;46.53;;
62707;SDS011;48769;51.624;5.886;2022-12-01T11:03:21;105.78;;;45.97;;
62707;SDS011;48769;51.624;5.886;2022-12-01T11:05:49;101.38;;;45.92;;
62707;SDS011;48769;51.624;5.886;2022-12-01T11:08:22;100.05;;;45.22;;
62707;SDS011;48769;51.624;5.886;2022-12-01T11:10:52;111.00;;;47.85;;
62707;SDS011;48769;51.624;5.886;2022-12-01T11:13:22;86.55;;;38.63;;
62707;SDS011;48769;51.624;5.886;2022-12-01T11:15:56;98.35;;;45.47;;
62707;SDS011;48769;51.624;5.886;2022-12-01T11:21:05;98.70;;;44.90;;
62707;SDS011;48769;51.624;5.886;2022-12-01T11:23:37;95.07;;;42.35;;
62707;SDS011;48769;51.624;5.886;2022-12-01T11:26:11;97.63;;;42.88;;
62707;SDS011;48769;51.624;5.886;2022-12-01T11:31:36;97.97;;;42.08;;
62707;SDS011;48769;51.624;5.886;2022-12-01T11:34:06;92.93;;;41.92;;
62707;SDS011;48769;51.624;5.886;2022-12-01T11:37:00;97.47;;;45.25;;
62707;SDS011;48769;51.624;5.886;2022-12-01T11:39:40;90.53;;;42.60;;
62707;SDS011;48769;51.624;5.886;2022-12-01T11:42:19;81.25;;;40.35;;
62707;SDS011;48769;51.624;5.886;2022-12-01T11:44:49;92.57;;;43.60;;
62707;SDS011;48769;51.624;5.886;2022-12-01T11:47:22;98.88;;;42.47;;
62707;SDS011;48769;51.624;5.886;2022-12-01T11:50:03;85.35;;;40.85;;
62707;SDS011;48769;51.624;5.886;2022-12-01T11:52:48;93.45;;;43.65;;
62707;SDS011;48769;51.624;5.886;2022-12-01T11:57:43;89.65;;;40.30;;
62707;SDS011;48769;51.624;5.886;2022-12-01T12:00:17;81.05;;;40.03;;
62707;SDS011;48769;51.624;5.886;2022-12-01T12:03:05;78.78;;;35.63;;
62707;SDS011;48769;51.624;5.886;2022-12-01T12:11:17;87.72;;;41.78;;
62707;SDS011;48769;51.624;5.886;2022-12-01T12:28:05;77.03;;;38.10;;
62707;SDS011;48769;51.624;5.886;2022-12-01T12:30:48;82.88;;;39.97;;
62707;SDS011;48769;51.624;5.886;2022-12-01T12:33:22;88.25;;;42.28;;
62707;SDS011;48769;51.624;5.886;2022-12-01T12:38:58;80.78;;;39.08;;
62707;SDS011;48769;51.624;5.886;2022-12-01T12:41:35;84.88;;;40.53;;
62707;SDS011;48769;51.624;5.886;2022-12-01T12:44:31;82.70;;;39.22;;
62707;SDS011;48769;51.624;5.886;2022-12-01T12:50:22;80.13;;;39.05;;
62707;SDS011;48769;51.624;5.886;2022-12-01T12:52:50;85.78;;;38.67;;
62707;SDS011;48769;51.624;5.886;2022-12-01T12:55:25;74.55;;;38.55;;
62707;SDS011;48769;51.624;5.886;2022-12-01T12:57:58;79.68;;;40.35;;
62707;SDS011;48769;51.624;5.886;2022-12-01T13:00:29;77.90;;;36.85;;
62707;SDS011;48769;51.624;5.886;2022-12-01T13:03:37;86.93;;;41.25;;
62707;SDS011;48769;51.624;5.886;2022-12-01T13:06:01;87.57;;;40.90;;
62707;SDS011;48769;51.624;5.886;2022-12-01T13:11:24;89.82;;;41.88;;
62707;SDS011;48769;51.624;5.886;2022-12-01T13:13:56;88.05;;;42.15;;
62707;SDS011;48769;51.624;5.886;2022-12-01T13:16:29;82.25;;;38.05;;
62707;SDS011;48769;51.624;5.886;2022-12-01T13:19:00;92.70;;;42.70;;
62707;SDS011;48769;51.624;5.886;2022-12-01T13:21:41;88.22;;;41.42;;
62707;SDS011;48769;51.624;5.886;2022-12-01T13:24:13;80.40;;;40.03;;
62707;SDS011;48769;51.624;5.886;2022-12-01T13:26:42;94.82;;;40.80;;
62707;SDS011;48769;51.624;5.886;2022-12-01T13:29:13;87.68;;;40.95;;
62707;SDS011;48769;51.624;5.886;2022-12-01T13:31:47;92.57;;;42.47;;
62707;SDS011;48769;51.624;5.886;2022-12-01T13:34:48;90.70;;;39.80;;
62707;SDS011;48769;51.624;5.886;2022-12-01T13:37:07;82.53;;;40.22;;
62707;SDS011;48769;51.624;5.886;2022-12-01T13:39:40;90.80;;;43.08;;
62707;SDS011;48769;51.624;5.886;2022-12-01T13:44:37;87.63;;;42.67;;
62707;SDS011;48769;51.624;5.886;2022-12-01T13:49:43;86.78;;;39.58;;
62707;SDS011;48769;51.624;5.886;2022-12-01T13:57:32;86.32;;;43.17;;
62707;SDS011;48769;51.624;5.886;2022-12-01T14:02:25;85.32;;;40.15;;
62707;SDS011;48769;51.624;5.886;2022-12-01T14:05:13;91.28;;;43.55;;
62707;SDS011;48769;51.624;5.886;2022-12-01T14:07:46;83.88;;;41.30;;
62707;SDS011;48769;51.624;5.886;2022-12-01T14:10:16;94.47;;;44.38;;
62707;SDS011;48769;51.624;5.886;2022-12-01T14:12:48;94.05;;;43.05;;
62707;SDS011;48769;51.624;5.886;2022-12-01T14:20:46;89.53;;;43.20;;
62707;SDS011;48769;51.624;5.886;2022-12-01T14:23:14;89.30;;;41.78;;
62707;SDS011;48769;51.624;5.886;2022-12-01T14:31:19;82.97;;;40.95;;
62707;SDS011;48769;51.624;5.886;2022-12-01T14:33:49;84.45;;;40.97;;
62707;SDS011;48769;51.624;5.886;2022-12-01T14:41:28;89.55;;;43.20;;
62707;SDS011;48769;51.624;5.886;2022-12-01T14:44:11;70.60;;;34.03;;
62707;SDS011;48769;51.624;5.886;2022-12-01T14:46:47;77.40;;;37.80;;
62707;SDS011;48769;51.624;5.886;2022-12-01T14:49:19;71.88;;;35.55;;
62707;SDS011;48769;51.624;5.886;2022-12-01T14:51:47;77.88;;;38.28;;
62707;SDS011;48769;51.624;5.886;2022-12-01T14:54:18;81.20;;;39.55;;
62707;SDS011;48769;51.624;5.886;2022-12-01T14:56:49;91.72;;;42.17;;
62707;SDS011;48769;51.624;5.886;2022-12-01T14:59:19;89.28;;;42.40;;
62707;SDS011;48769;51.624;5.886;2022-12-01T15:01:47;74.40;;;39.13;;
62707;SDS011;48769;51.624;5.886;2022-12-01T15:04:15;67.18;;;34.15;;
62707;SDS011;48769;51.624;5.886;2022-12-01T15:06:40;73.47;;;37.17;;
62707;SDS011;48769;51.624;5.886;2022-12-01T15:09:13;70.05;;;34.33;;
62707;SDS011;48769;51.624;5.886;2022-12-01T15:11:57;71.75;;;37.25;;
62707;SDS011;48769;51.624;5.886;2022-12-01T15:16:51;84.95;;;39.67;;
62707;SDS011;48769;51.624;5.886;2022-12-01T15:19:39;83.65;;;39.00;;
62707;SDS011;48769;51.624;5.886;2022-12-01T15:22:14;81.63;;;39.63;;
62707;SDS011;48769;51.624;5.886;2022-12-01T15:24:41;79.82;;;38.65;;
62707;SDS011;48769;51.624;5.886;2022-12-01T15:27:24;81.75;;;39.67;;
62707;SDS011;48769;51.624;5.886;2022-12-01T15:29:55;84.85;;;41.17;;
62707;SDS011;48769;51.624;5.886;2022-12-01T15:32:22;87.28;;;41.90;;
62707;SDS011;48769;51.624;5.886;2022-12-01T15:34:50;83.50;;;41.92;;
62707;SDS011;48769;51.624;5.886;2022-12-01T15:37:18;88.72;;;41.58;;
62707;SDS011;48769;51.624;5.886;2022-12-01T15:39:51;88.90;;;42.88;;
62707;SDS011;48769;51.624;5.886;2022-12-01T15:42:26;87.07;;;41.78;;
62707;SDS011;48769;51.624;5.886;2022-12-01T15:44:57;87.95;;;41.63;;
62707;SDS011;48769;51.624;5.886;2022-12-01T15:47:32;87.50;;;41.88;;
62707;SDS011;48769;51.624;5.886;2022-12-01T15:50:03;95.20;;;43.28;;
62707;SDS011;48769;51.624;5.886;2022-12-01T15:52:30;81.07;;;39.97;;
62707;SDS011;48769;51.624;5.886;2022-12-01T15:54:57;99.97;;;42.08;;
62707;SDS011;48769;51.624;5.886;2022-12-01T15:57:28;81.85;;;38.60;;
62707;SDS011;48769;51.624;5.886;2022-12-01T15:59:54;78.93;;;39.97;;
62707;SDS011;48769;51.624;5.886;2022-12-01T16:02:23;78.13;;;39.88;;
62707;SDS011;48769;51.624;5.886;2022-12-01T16:05:03;77.68;;;36.90;;
62707;SDS011;48769;51.624;5.886;2022-12-01T16:07:39;72.97;;;37.55;;
62707;SDS011;48769;51.624;5.886;2022-12-01T16:10:04;75.28;;;38.72;;
62707;SDS011;48769;51.624;5.886;2022-12-01T16:12:31;72.20;;;36.30;;
62707;SDS011;48769;51.624;5.886;2022-12-01T16:17:24;78.57;;;37.40;;
62707;SDS011;48769;51.624;5.886;2022-12-01T16:22:44;66.38;;;34.08;;
62707;SDS011;48769;51.624;5.886;2022-12-01T16:25:15;62.55;;;34.63;;
62707;SDS011;48769;51.624;5.886;2022-12-01T16:28:02;65.82;;;33.95;;
62707;SDS011;48769;51.624;5.886;2022-12-01T16:30:34;60.08;;;31.40;;
62707;SDS011;48769;51.624;5.886;2022-12-01T16:33:02;57.05;;;31.92;;
62707;SDS011;48769;51.624;5.886;2022-12-01T16:35:30;68.95;;;33.92;;
62707;SDS011;48769;51.624;5.886;2022-12-01T16:37:59;63.60;;;32.35;;
62707;SDS011;48769;51.624;5.886;2022-12-01T16:40:28;61.95;;;32.40;;